Time;durP1;ratioP1;P1;durP2;ratioP2;P2;SDS_P1;SDS_P2;PMS_P1;PMS_P2;Temp;Humidity;BMP_temperature;BMP_pressure;BME280_temperature;BME280_humidity;BME280_pressure;Samples;Min_cycle;Max_cycle;Signal;HPM_P1;HPM_P2
2023/10/28 00:04:58;;;;;;;4.30;1.90;;;16.20;80.20;;;;;;10409147;28;20065;-57
2023/10/28 00:09:59;;;;;;;3.50;2.35;;;16.10;80.10;;;;;;10408659;28;20068;-57
2023/10/28 00:14:59;;;;;;;2.88;2.13;;;16.10;80.10;;;;;;10408880;28;20044;-57
2023/10/28 00:20:04;;;;;;;3.58;2.40;;;16.20;80.10;;;;;;10408942;28;20029;-57
2023/10/28 00:25:06;;;;;;;2.80;2.28;;;16.10;80.10;;;;;;10408881;28;20455;-57
2023/10/28 00:30:11;;;;;;;2.60;2.08;;;16.10;80.10;;;;;;10420528;28;20053;-57
2023/10/28 00:35:11;;;;;;;4.38;1.60;;;16.10;80.10;;;;;;10408553;28;20128;-57
2023/10/28 00:40:13;;;;;;;3.30;2.30;;;16.10;80.20;;;;;;10408087;28;20032;-57
2023/10/28 00:45:15;;;;;;;2.78;1.77;;;16.10;80.20;;;;;;10415726;28;20026;-57
2023/10/28 00:50:16;;;;;;;4.38;2.33;;;16.10;80.30;;;;;;10416945;28;20029;-57
2023/10/28 00:55:18;;;;;;;3.13;1.45;;;16.10;80.30;;;;;;10416667;28;20457;-57
2023/10/28 01:00:20;;;;;;;2.55;2.00;;;16.10;80.20;;;;;;10414849;28;20034;-56
2023/10/28 01:05:22;;;;;;;3.47;1.60;;;16.10;80.20;;;;;;10415600;28;20091;-57
2023/10/28 01:10:33;;;;;;;2.55;1.77;;;16.10;80.20;;;;;;10415689;28;20156;-57
2023/10/28 01:15:34;;;;;;;3.75;1.52;;;16.10;80.20;;;;;;10415758;28;20041;-57
2023/10/28 01:20:35;;;;;;;2.47;1.60;;;16.10;80.20;;;;;;10415197;28;20043;-57
2023/10/28 01:25:36;;;;;;;2.70;1.90;;;16.00;80.20;;;;;;10415441;28;20492;-57
2023/10/28 01:30:37;;;;;;;3.78;1.98;;;16.10;80.30;;;;;;10426715;28;20060;-57
2023/10/28 01:35:39;;;;;;;2.90;1.77;;;16.10;80.20;;;;;;10415210;28;20055;-57
2023/10/28 01:40:40;;;;;;;2.75;2.08;;;16.00;80.10;;;;;;10414691;28;20025;-57
2023/10/28 01:45:40;;;;;;;2.60;1.58;;;16.00;80.20;;;;;;10414362;28;20040;-57
2023/10/28 01:50:41;;;;;;;3.72;2.50;;;16.00;80.20;;;;;;10413215;28;20037;-57
2023/10/28 01:55:42;;;;;;;2.58;1.60;;;16.00;80.20;;;;;;10412830;28;20029;-57
2023/10/28 02:00:42;;;;;;;1.98;1.52;;;16.00;80.20;;;;;;10413864;28;20361;-57
2023/10/28 02:05:43;;;;;;;3.30;1.85;;;16.00;80.20;;;;;;10413810;28;20449;-57
2023/10/28 02:10:44;;;;;;;4.43;1.85;;;16.00;80.20;;;;;;10413524;28;20028;-57
2023/10/28 02:15:51;;;;;;;2.90;1.90;;;16.00;80.10;;;;;;10413327;28;20034;-57
2023/10/28 02:20:54;;;;;;;2.97;1.67;;;16.00;80.20;;;;;;10413094;28;20036;-57
2023/10/28 02:25:55;;;;;;;2.55;1.85;;;16.00;80.20;;;;;;10412527;28;20029;-57
2023/10/28 02:30:55;;;;;;;3.25;1.75;;;16.00;80.20;;;;;;10424887;28;20045;-57
2023/10/28 02:35:56;;;;;;;2.50;1.60;;;16.00;80.20;;;;;;10412886;28;20030;-57
2023/10/28 02:40:57;;;;;;;2.47;1.75;;;16.00;80.10;;;;;;10412876;28;20032;-57
2023/10/28 02:45:58;;;;;;;2.67;1.60;;;16.00;80.10;;;;;;10412127;28;20033;-57
2023/10/28 02:51:07;;;;;;;2.80;1.80;;;16.00;80.10;;;;;;10412616;28;20029;-57
2023/10/28 02:56:08;;;;;;;;;;;16.00;80.20;;;;;;10411943;28;20026;-57
2023/10/28 03:01:11;;;;;;;3.05;2.00;;;16.00;80.10;;;;;;10443715;28;19909;-57
2023/10/28 03:06:12;;;;;;;3.15;1.60;;;16.00;80.10;;;;;;10409920;28;20029;-57
2023/10/28 03:11:13;;;;;;;7.55;1.65;;;15.90;80.10;;;;;;10411751;28;20521;-57
2023/10/28 03:16:13;;;;;;;3.25;1.65;;;16.00;80.10;;;;;;10410786;28;20037;-57
2023/10/28 03:21:15;;;;;;;3.30;1.77;;;16.00;80.10;;;;;;10421142;28;20029;-57
2023/10/28 03:26:16;;;;;;;2.50;1.85;;;15.90;80.10;;;;;;10428282;28;20033;-57
2023/10/28 03:31:17;;;;;;;1.88;1.48;;;15.90;80.00;;;;;;10425389;28;20133;-57
2023/10/28 03:36:17;;;;;;;2.67;1.30;;;15.90;80.10;;;;;;10410065;28;20036;-58
2023/10/28 03:41:19;;;;;;;3.08;1.83;;;15.90;80.10;;;;;;10410009;28;20037;-57
2023/10/28 03:46:20;;;;;;;2.15;1.40;;;15.90;80.00;;;;;;10409592;28;20029;-57
2023/10/28 03:51:21;;;;;;;2.10;1.20;;;15.90;80.00;;;;;;10410074;28;20366;-57
2023/10/28 03:56:22;;;;;;;1.90;1.40;;;15.90;80.10;;;;;;10409502;28;20034;-57
2023/10/28 04:01:23;;;;;;;2.58;1.50;;;15.90;80.10;;;;;;10409714;28;20018;-57
2023/10/28 04:06:25;;;;;;;2.40;1.55;;;15.90;80.00;;;;;;10408835;28;20033;-57
2023/10/28 04:11:25;;;;;;;2.95;1.52;;;15.90;80.00;;;;;;10409093;28;20029;-57
2023/10/28 04:16:26;;;;;;;2.80;1.50;;;15.90;80.00;;;;;;10408720;28;20033;-57
2023/10/28 04:21:27;;;;;;;2.10;1.13;;;15.90;80.00;;;;;;10408971;28;20032;-57
2023/10/28 04:26:28;;;;;;;2.72;1.50;;;15.90;80.00;;;;;;10407695;28;20615;-57
2023/10/28 04:31:29;;;;;;;1.80;1.20;;;15.90;80.00;;;;;;10426219;28;20037;-57
2023/10/28 04:36:30;;;;;;;1.98;1.33;;;15.90;80.00;;;;;;10408064;28;20052;-56
2023/10/28 04:41:30;;;;;;;2.28;1.50;;;15.90;80.00;;;;;;10408666;28;20633;-57
2023/10/28 04:46:31;;;;;;;2.55;1.33;;;16.10;79.70;;;;;;10406853;28;20489;-57
2023/10/28 04:51:32;;;;;;;2.90;1.60;;;16.40;78.70;;;;;;10414319;28;20531;-57
2023/10/28 04:56:32;;;;;;;1.38;1.10;;;16.70;77.60;;;;;;10414423;28;20057;-57
2023/10/28 05:01:33;;;;;;;1.48;0.98;;;16.90;76.70;;;;;;10408094;28;20028;-57
2023/10/28 05:06:34;;;;;;;2.25;1.35;;;17.10;75.80;;;;;;10415511;28;20098;-57
2023/10/28 05:11:35;;;;;;;2.65;1.35;;;17.40;75.30;;;;;;10412009;28;20040;-57
2023/10/28 05:16:35;;;;;;;5.32;1.20;;;17.50;75.50;;;;;;10404892;28;20040;-56
2023/10/28 05:21:37;;;;;;;3.33;1.25;;;17.70;74.80;;;;;;10405760;28;20033;-57
2023/10/28 05:26:38;;;;;;;1.92;1.40;;;17.90;74.60;;;;;;10404412;28;20025;-55
2023/10/28 05:31:38;;;;;;;3.70;1.45;;;18.00;75.80;;;;;;10423738;28;20505;-56
2023/10/28 05:36:39;;;;;;;6.07;1.15;;;18.10;75.20;;;;;;10411924;28;20036;-55
2023/10/28 05:41:40;;;;;;;3.90;1.60;;;18.10;75.30;;;;;;10423635;28;20048;-56
2023/10/28 05:46:41;;;;;;;3.60;1.65;;;18.10;75.70;;;;;;10429527;28;20037;-55
2023/10/28 05:51:43;;;;;;;3.95;1.20;;;18.00;75.60;;;;;;10427895;28;20048;-56
2023/10/28 05:56:44;;;;;;;2.65;1.00;;;17.90;75.80;;;;;;10413641;28;20029;-54
2023/10/28 06:01:45;;;;;;;5.85;1.60;;;17.80;75.90;;;;;;10411995;28;20408;-58
2023/10/28 06:06:46;;;;;;;2.72;1.70;;;17.80;76.50;;;;;;10413848;28;20461;-56
2023/10/28 06:11:47;;;;;;;6.43;1.55;;;17.80;76.50;;;;;;10416145;28;20110;-56
2023/10/28 06:16:49;;;;;;;6.47;1.63;;;17.70;76.30;;;;;;10412391;28;20029;-57
2023/10/28 06:21:51;;;;;;;7.30;1.20;;;17.60;76.50;;;;;;10419235;28;20032;-55
2023/10/28 06:26:51;;;;;;;6.28;1.30;;;17.60;77.10;;;;;;10412927;28;20104;-57
2023/10/28 06:31:52;;;;;;;11.75;1.85;;;17.50;77.40;;;;;;10422704;28;20061;-57
2023/10/28 06:36:54;;;;;;;9.80;1.70;;;17.40;77.60;;;;;;10408978;28;20721;-54
2023/10/28 06:41:55;;;;;;;8.25;1.58;;;17.40;77.60;;;;;;10419675;28;20494;-56
2023/10/28 06:46:55;;;;;;;9.48;1.88;;;17.30;77.80;;;;;;10416984;28;20034;-56
2023/10/28 06:51:56;;;;;;;10.18;2.42;;;17.30;78.10;;;;;;10412157;28;20026;-56
2023/10/28 06:56:57;;;;;;;11.25;2.08;;;17.20;78.20;;;;;;10411600;28;20024;-55
2023/10/28 07:01:58;;;;;;;13.93;1.77;;;17.30;78.30;;;;;;10427982;28;20033;-56
2023/10/28 07:06:59;;;;;;;11.27;1.95;;;17.20;78.10;;;;;;10410076;28;20037;-57
2023/10/28 07:11:59;;;;;;;10.70;1.67;;;17.20;78.20;;;;;;10420120;28;20030;-56
2023/10/28 07:17:01;;;;;;;7.80;2.05;;;17.00;78.50;;;;;;10409700;28;20029;-58
2023/10/28 07:22:02;;;;;;;6.57;1.60;;;17.00;78.70;;;;;;10410016;28;20079;-57
2023/10/28 07:27:04;;;;;;;7.70;1.55;;;16.90;78.70;;;;;;10409110;28;20044;-58
2023/10/28 07:32:06;;;;;;;6.72;3.17;;;16.90;78.60;;;;;;10421439;28;20045;-57
2023/10/28 07:37:07;;;;;;;6.55;1.80;;;16.90;78.60;;;;;;10409487;28;20030;-56
2023/10/28 07:42:07;;;;;;;6.00;1.50;;;16.90;78.60;;;;;;10409675;28;20567;-57
2023/10/28 07:47:10;;;;;;;7.53;1.67;;;17.00;78.30;;;;;;10408785;28;20461;-57
2023/10/28 07:52:12;;;;;;;5.25;1.30;;;17.10;77.80;;;;;;10408958;28;20052;-57
2023/10/28 07:57:13;;;;;;;5.53;1.95;;;17.10;77.70;;;;;;10408991;28;20827;-57
2023/10/28 08:02:15;;;;;;;3.25;1.02;;;17.20;77.60;;;;;;10409096;28;20033;-57
2023/10/28 08:07:16;;;;;;;4.55;1.42;;;17.20;77.30;;;;;;10407810;28;20199;-57
2023/10/28 08:12:18;;;;;;;4.32;1.38;;;17.20;77.20;;;;;;10408318;28;20083;-57
2023/10/28 08:17:18;;;;;;;6.95;1.70;;;17.20;77.10;;;;;;10406549;28;20087;-56
2023/10/28 08:22:19;;;;;;;4.00;1.10;;;17.20;77.10;;;;;;10406781;28;20492;-57
2023/10/28 08:27:20;;;;;;;5.60;1.60;;;17.20;77.40;;;;;;10407736;28;20057;-57
2023/10/28 08:32:21;;;;;;;3.80;1.45;;;17.10;77.50;;;;;;10419612;28;20068;-56
2023/10/28 08:37:23;;;;;;;2.65;1.17;;;17.00;77.70;;;;;;10407829;28;20040;-56
2023/10/28 08:42:23;;;;;;;3.17;1.20;;;17.00;77.80;;;;;;10407597;28;20087;-57
2023/10/28 08:47:26;;;;;;;4.07;0.98;;;17.10;77.40;;;;;;10406589;28;20451;-57
2023/10/28 08:52:28;;;;;;;2.58;1.00;;;17.10;77.20;;;;;;10405690;28;20551;-57
2023/10/28 08:57:30;;;;;;;3.42;1.27;;;17.10;77.30;;;;;;10405796;28;20037;-57
2023/10/28 09:02:33;;;;;;;2.45;0.90;;;17.20;77.30;;;;;;10407863;28;20045;-56
2023/10/28 09:07:35;;;;;;;2.78;1.27;;;17.20;76.90;;;;;;10413319;28;20041;-57
2023/10/28 09:12:36;;;;;;;3.42;1.05;;;17.20;76.80;;;;;;10415073;28;20036;-56
2023/10/28 09:17:39;;;;;;;3.42;1.10;;;17.20;77.10;;;;;;10414634;28;20081;-57
2023/10/28 09:22:43;;;;;;;2.45;0.88;;;17.10;77.30;;;;;;10414549;28;20029;-57
2023/10/28 09:27:45;;;;;;;2.83;2.08;;;17.10;77.50;;;;;;10413927;28;20056;-56
2023/10/28 09:32:46;;;;;;;5.78;1.20;;;17.00;77.60;;;;;;10426156;28;20069;-56
2023/10/28 09:37:46;;;;;;;2.97;1.38;;;17.10;77.40;;;;;;10414099;28;20041;-57
2023/10/28 09:42:48;;;;;;;3.25;1.45;;;17.10;77.30;;;;;;10414315;28;20393;-57
2023/10/28 09:47:58;;;;;;;2.38;0.85;;;17.10;77.10;;;;;;10412670;28;20038;-57
2023/10/28 09:52:59;;;;;;;4.38;1.00;;;17.10;77.30;;;;;;10414133;28;20029;-57
2023/10/28 09:58:13;;;;;;;5.13;0.95;;;17.10;77.30;;;;;;10412355;28;20033;-57
2023/10/28 10:03:29;;;;;;;3.20;1.63;;;17.20;77.00;;;;;;10413401;28;20496;-57
2023/10/28 10:08:29;;;;;;;1.92;0.60;;;17.10;76.90;;;;;;10412204;28;20044;-57
2023/10/28 10:13:40;;;;;;;2.42;1.20;;;17.10;77.10;;;;;;10413318;28;20033;-57
2023/10/28 10:18:49;;;;;;;2.83;1.17;;;17.10;77.30;;;;;;10411825;28;20040;-57
2023/10/28 10:23:52;;;;;;;3.10;0.85;;;17.00;77.40;;;;;;10411016;28;20368;-57
2023/10/28 10:28:56;;;;;;;1.40;0.80;;;17.00;77.60;;;;;;10416866;28;20060;-57
2023/10/28 10:34:07;;;;;;;3.38;1.02;;;17.10;77.30;;;;;;10418914;28;20844;-57
2023/10/28 10:39:16;;;;;;;2.40;0.93;;;17.10;77.10;;;;;;10411320;28;20038;-57
2023/10/28 10:44:34;;;;;;;2.63;0.85;;;17.10;77.20;;;;;;10410947;28;20384;-56
2023/10/28 10:49:38;;;;;;;3.53;0.95;;;17.10;77.20;;;;;;10411424;28;20384;-57
2023/10/28 10:54:40;;;;;;;2.92;0.80;;;17.00;77.40;;;;;;10410461;28;20460;-56
2023/10/28 10:59:40;;;;;;;2.00;1.45;;;17.00;77.60;;;;;;10410366;28;20706;-56
2023/10/28 11:04:41;;;;;;;1.65;0.90;;;17.00;77.80;;;;;;10410888;28;20065;-57
2023/10/28 11:09:42;;;;;;;0.95;0.70;;;17.00;77.70;;;;;;10410131;28;20140;-56
2023/10/28 11:14:43;;;;;;;2.15;0.80;;;17.10;77.80;;;;;;10410391;28;20395;-57
2023/10/28 11:19:49;;;;;;;4.05;0.85;;;17.10;77.80;;;;;;10409890;28;20030;-56
2023/10/28 11:24:56;;;;;;;2.13;1.08;;;17.10;77.90;;;;;;10408414;28;20025;-57
2023/10/28 11:29:58;;;;;;;2.15;0.88;;;17.00;78.00;;;;;;10409229;28;20691;-57
2023/10/28 11:34:59;;;;;;;3.10;0.95;;;17.10;80.30;;;;;;10409745;28;20029;-57
2023/10/28 11:40:00;;;;;;;1.88;0.80;;;17.10;80.30;;;;;;10409076;28;20370;-56
2023/10/28 11:45:07;;;;;;;2.90;1.10;;;17.10;80.30;;;;;;10407632;28;20037;-56
2023/10/28 11:50:09;;;;;;;1.75;1.25;;;17.10;79.90;;;;;;10409102;28;20055;-57
2023/10/28 11:55:09;;;;;;;1.77;0.88;;;17.00;80.30;;;;;;10408552;28;20061;-56
2023/10/28 12:00:11;;;;;;;1.65;1.00;;;17.00;80.00;;;;;;10408054;28;20022;-56
2023/10/28 12:05:13;;;;;;;1.35;0.70;;;17.00;80.20;;;;;;10408863;28;20034;-57
2023/10/28 12:10:13;;;;;;;1.02;0.50;;;17.00;80.30;;;;;;10407668;28;20092;-57
2023/10/28 12:15:15;;;;;;;2.38;1.00;;;17.00;80.00;;;;;;10408337;28;20035;-57
2023/10/28 12:20:16;;;;;;;1.50;0.73;;;17.00;80.20;;;;;;10408027;28;20041;-56
2023/10/28 12:25:16;;;;;;;1.77;0.85;;;17.00;79.90;;;;;;10407562;28;20535;-57
2023/10/28 12:30:18;;;;;;;2.00;0.88;;;17.00;80.00;;;;;;10419451;28;20065;-57
2023/10/28 12:35:19;;;;;;;1.05;0.65;;;16.90;79.70;;;;;;10407574;28;20422;-56
2023/10/28 12:40:20;;;;;;;1.48;0.85;;;16.80;79.90;;;;;;10418951;28;20026;-57
2023/10/28 12:45:20;;;;;;;0.73;0.60;;;16.80;80.00;;;;;;10421101;28;20043;-56
2023/10/28 12:50:22;;;;;;;1.33;0.70;;;16.80;79.90;;;;;;10420376;28;20057;-56
2023/10/28 12:55:23;;;;;;;1.13;0.60;;;16.90;80.00;;;;;;10421119;28;20468;-56
2023/10/28 13:00:24;;;;;;;2.47;0.75;;;16.80;79.80;;;;;;10420761;28;20029;-57
2023/10/28 13:05:25;;;;;;;2.25;0.80;;;16.80;79.80;;;;;;10420973;28;20037;-56
2023/10/28 13:10:27;;;;;;;1.75;0.90;;;16.80;79.80;;;;;;10420211;28;20540;-56
2023/10/28 13:15:28;;;;;;;3.30;1.48;;;16.80;80.00;;;;;;10420571;28;20373;-56
2023/10/28 13:20:28;;;;;;;1.65;0.70;;;16.80;79.90;;;;;;10420988;28;20022;-57
2023/10/28 13:25:29;;;;;;;2.83;1.02;;;16.80;79.80;;;;;;10420306;28;20041;-57
2023/10/28 13:30:30;;;;;;;3.17;0.95;;;16.80;79.70;;;;;;10432073;28;20045;-57
2023/10/28 13:35:31;;;;;;;1.42;0.93;;;16.80;79.70;;;;;;10420411;28;20444;-56
2023/10/28 13:40:33;;;;;;;1.83;0.85;;;16.80;79.70;;;;;;10419978;28;20392;-57
2023/10/28 13:45:34;;;;;;;2.03;1.00;;;16.80;79.70;;;;;;10420911;28;20057;-56
2023/10/28 13:50:36;;;;;;;2.22;1.00;;;16.80;79.70;;;;;;10415225;28;20029;-57
2023/10/28 13:55:37;;;;;;;2.63;1.15;;;16.70;79.60;;;;;;10414057;28;20063;-57
2023/10/28 14:00:38;;;;;;;3.67;1.20;;;16.80;79.40;;;;;;10412659;28;20064;-56
2023/10/28 14:05:39;;;;;;;5.90;1.52;;;16.70;79.20;;;;;;10413700;28;20021;-56
2023/10/28 14:10:39;;;;;;;6.90;1.35;;;16.80;78.50;;;;;;10412114;28;20025;-56
2023/10/28 14:15:42;;;;;;;4.03;1.08;;;16.90;78.40;;;;;;10413782;28;20029;-56
2023/10/28 14:20:43;;;;;;;4.75;1.58;;;16.90;78.30;;;;;;10413534;28;20021;-57
2023/10/28 14:25:44;;;;;;;4.15;1.40;;;16.90;78.30;;;;;;10413410;28;20029;-56
2023/10/28 14:30:46;;;;;;;6.43;1.60;;;16.90;78.40;;;;;;10423857;28;20049;-58
2023/10/28 14:35:46;;;;;;;7.28;1.75;;;16.90;78.40;;;;;;10412015;28;20033;-56
2023/10/28 14:40:47;;;;;;;5.43;1.20;;;17.00;78.60;;;;;;10411378;28;20026;-56
2023/10/28 14:45:49;;;;;;;8.27;1.98;;;16.90;78.90;;;;;;10412135;28;20051;-56
2023/10/28 14:50:56;;;;;;;7.25;1.85;;;17.00;78.90;;;;;;10412001;28;20048;-55
2023/10/28 14:55:56;;;;;;;12.27;3.10;;;17.00;78.70;;;;;;10411901;28;20041;-55
2023/10/28 15:01:08;;;;;;;14.70;2.20;;;17.10;78.50;;;;;;10409756;28;20041;-56
2023/10/28 15:06:10;;;;;;;13.25;2.05;;;17.20;78.40;;;;;;10403895;28;20358;-56
2023/10/28 15:11:12;;;;;;;8.07;2.30;;;17.30;77.80;;;;;;10411285;28;20120;-56
2023/10/28 15:16:14;;;;;;;7.22;1.77;;;17.30;78.30;;;;;;10411402;28;20053;-56
2023/10/28 15:21:15;;;;;;;10.00;2.35;;;17.20;78.80;;;;;;10411023;28;20063;-56
2023/10/28 15:26:17;;;;;;;9.18;2.13;;;17.20;78.60;;;;;;10411171;28;20033;-56
2023/10/28 15:31:18;;;;;;;8.73;2.70;;;17.30;79.10;;;;;;10412064;28;20049;-56
2023/10/28 15:36:20;;;;;;;5.05;2.53;;;17.50;78.80;;;;;;10409880;28;20021;-57
2023/10/28 15:41:21;;;;;;;8.80;2.70;;;17.50;79.30;;;;;;10410572;28;20025;-56
2023/10/28 15:46:21;;;;;;;12.30;4.03;;;17.50;78.50;;;;;;10408817;28;20033;-58
2023/10/28 15:51:24;;;;;;;29.75;9.82;;;17.40;78.30;;;;;;10409977;28;20064;-56
2023/10/28 15:56:25;;;;;;;25.23;6.43;;;17.40;79.10;;;;;;10410103;28;20079;-56
2023/10/28 16:01:26;;;;;;;20.95;6.85;;;17.30;78.80;;;;;;10409963;28;20021;-56
2023/10/28 16:06:26;;;;;;;31.20;6.30;;;17.20;78.90;;;;;;10409130;28;20039;-56
2023/10/28 16:11:27;;;;;;;22.25;5.18;;;17.30;80.20;;;;;;10409114;28;20033;-55
2023/10/28 16:16:28;;;;;;;21.48;5.60;;;17.40;80.10;;;;;;10408984;28;20441;-56
2023/10/28 16:21:29;;;;;;;27.55;6.05;;;17.50;79.50;;;;;;10409474;28;20053;-56
2023/10/28 16:26:30;;;;;;;29.73;5.10;;;17.40;79.90;;;;;;10408962;28;20041;-54
2023/10/28 16:31:31;;;;;;;13.30;3.65;;;17.40;79.70;;;;;;10407495;28;20046;-55
2023/10/28 16:36:32;;;;;;;15.77;4.32;;;17.40;79.60;;;;;;10408423;28;20037;-56
2023/10/28 16:41:33;;;;;;;15.10;5.93;;;17.40;79.50;;;;;;10408946;28;20767;-57
2023/10/28 16:46:38;;;;;;;11.80;4.20;;;17.40;79.60;;;;;;10408719;28;20033;-57
2023/10/28 16:51:40;;;;;;;16.20;4.60;;;17.50;79.60;;;;;;10408321;28;20037;-56
2023/10/28 16:56:42;;;;;;;17.73;4.65;;;17.40;79.70;;;;;;10407045;28;20041;-56
2023/10/28 17:01:45;;;;;;;16.27;3.63;;;17.30;80.10;;;;;;10404628;28;20443;-56
2023/10/28 17:06:47;;;;;;;16.38;3.67;;;17.10;80.30;;;;;;10407908;28;20056;-56
2023/10/28 17:11:48;;;;;;;15.85;3.88;;;17.10;80.30;;;;;;10423453;28;20044;-56
2023/10/28 17:16:49;;;;;;;12.65;4.53;;;17.10;80.50;;;;;;10407320;28;20508;-56
2023/10/28 17:21:49;;;;;;;14.38;4.15;;;17.10;80.10;;;;;;10408155;28;20033;-55
2023/10/28 17:26:50;;;;;;;10.32;3.50;;;17.00;80.20;;;;;;10412589;28;20112;-56
2023/10/28 17:31:51;;;;;;;19.48;3.72;;;16.90;80.20;;;;;;10427802;28;20066;-56
2023/10/28 17:36:52;;;;;;;22.73;4.20;;;16.90;80.30;;;;;;10415578;28;20154;-56
2023/10/28 17:41:53;;;;;;;8.15;3.40;;;16.80;80.30;;;;;;10415256;28;20022;-55
2023/10/28 17:46:53;;;;;;;7.70;3.70;;;16.80;80.30;;;;;;10414818;28;20036;-56
2023/10/28 17:51:55;;;;;;;10.98;3.10;;;16.80;80.10;;;;;;10414750;28;20036;-55
2023/10/28 17:56:57;;;;;;;7.78;2.65;;;16.80;80.10;;;;;;10415490;28;20063;-56
2023/10/28 18:02:00;;;;;;;9.05;3.20;;;16.80;80.10;;;;;;10427435;28;20037;-55
2023/10/28 18:07:01;;;;;;;8.13;2.95;;;16.80;80.00;;;;;;10417830;28;20037;-56
2023/10/28 18:12:01;;;;;;;10.45;2.83;;;16.80;79.90;;;;;;10413617;28;20477;-56
2023/10/28 18:17:03;;;;;;;10.73;2.75;;;16.80;79.60;;;;;;10413808;28;20095;-56
2023/10/28 18:22:05;;;;;;;8.23;3.00;;;16.90;79.40;;;;;;10413545;28;20083;-56
2023/10/28 18:27:06;;;;;;;6.55;2.20;;;17.00;79.90;;;;;;10407430;28;20047;-56
2023/10/28 18:32:09;;;;;;;7.63;2.63;;;17.00;79.20;;;;;;10415555;28;20045;-56
2023/10/28 18:37:10;;;;;;;6.47;3.08;;;16.90;79.10;;;;;;10409493;28;20044;-56
2023/10/28 18:42:11;;;;;;;5.18;2.15;;;17.00;79.00;;;;;;10411480;28;20032;-55
2023/10/28 18:47:12;;;;;;;5.50;2.33;;;17.00;78.90;;;;;;10417618;28;20490;-56
2023/10/28 18:52:13;;;;;;;5.40;2.25;;;17.00;78.80;;;;;;10393321;28;20029;-56
2023/10/28 18:57:14;;;;;;;7.72;2.45;;;17.00;78.70;;;;;;10411292;28;20026;-56
2023/10/28 19:02:15;;;;;;;4.57;2.67;;;17.00;78.60;;;;;;10411481;28;20465;-55
2023/10/28 19:07:15;;;;;;;7.00;2.85;;;17.00;78.60;;;;;;10411611;28;20112;-56
2023/10/28 19:12:16;;;;;;;4.78;2.20;;;17.00;78.70;;;;;;10411305;28;20109;-56
2023/10/28 19:17:17;;;;;;;4.90;1.95;;;17.00;78.70;;;;;;10410852;28;20037;-56
2023/10/28 19:22:20;;;;;;;4.53;2.00;;;16.90;78.70;;;;;;10411445;28;20473;-56
2023/10/28 19:27:20;;;;;;;8.35;2.38;;;16.90;78.70;;;;;;10410496;28;20037;-56
2023/10/28 19:32:22;;;;;;;4.10;1.90;;;16.90;78.70;;;;;;10419306;28;20488;-56
2023/10/28 19:37:23;;;;;;;5.40;2.10;;;16.80;78.70;;;;;;10410153;28;20048;-56
2023/10/28 19:42:24;;;;;;;5.18;1.77;;;16.80;78.80;;;;;;10410350;28;20482;-56
2023/10/28 19:47:25;;;;;;;5.63;1.67;;;16.80;78.80;;;;;;10409442;28;20033;-56
2023/10/28 19:52:28;;;;;;;4.72;2.08;;;16.80;78.80;;;;;;10409752;28;20029;-56
2023/10/28 19:57:29;;;;;;;5.80;2.00;;;16.80;78.90;;;;;;10416533;28;20090;-55
2023/10/28 20:02:30;;;;;;;3.53;2.25;;;16.80;78.90;;;;;;10409712;28;20029;-56
2023/10/28 20:07:31;;;;;;;4.10;1.85;;;16.80;78.90;;;;;;10408225;28;20041;-56
2023/10/28 20:12:33;;;;;;;3.75;1.75;;;16.70;78.90;;;;;;10409294;28;20051;-56
2023/10/28 20:17:37;;;;;;;4.15;1.85;;;16.70;78.90;;;;;;10409017;28;20021;-56
2023/10/28 20:22:38;;;;;;;5.78;2.90;;;16.70;78.90;;;;;;10409606;28;20573;-56
2023/10/28 20:27:39;;;;;;;3.10;1.80;;;16.70;79.00;;;;;;10408834;28;20052;-56
2023/10/28 20:32:41;;;;;;;4.78;1.92;;;16.70;79.10;;;;;;10421788;28;20524;-56
2023/10/28 20:37:41;;;;;;;4.05;1.58;;;16.60;79.00;;;;;;10408486;28;20091;-56
2023/10/28 20:42:42;;;;;;;2.47;1.50;;;16.60;79.00;;;;;;10407684;28;20114;-56
2023/10/28 20:47:43;;;;;;;3.80;1.70;;;16.60;79.00;;;;;;10407061;28;20036;-56
2023/10/28 20:52:44;;;;;;;4.90;2.20;;;16.60;79.00;;;;;;10408823;28;20044;-56
2023/10/28 20:57:44;;;;;;;2.80;1.40;;;16.60;79.10;;;;;;10409293;28;20034;-56
2023/10/28 21:02:47;;;;;;;2.10;1.33;;;16.60;79.10;;;;;;10417277;28;20029;-56
2023/10/28 21:07:47;;;;;;;2.80;1.55;;;16.60;79.10;;;;;;10416317;28;20032;-55
2023/10/28 21:12:48;;;;;;;4.28;1.88;;;16.60;79.20;;;;;;10416686;28;20029;-56
2023/10/28 21:17:50;;;;;;;2.85;1.45;;;16.60;79.20;;;;;;10415698;28;20048;-56
2023/10/28 21:22:52;;;;;;;6.30;1.90;;;16.60;79.20;;;;;;10416430;28;20037;-56
2023/10/28 21:27:55;;;;;;;3.35;1.67;;;16.60;79.20;;;;;;10415611;28;20104;-56
2023/10/28 21:32:55;;;;;;;3.38;2.00;;;16.60;79.10;;;;;;10428411;28;20073;-56
2023/10/28 21:37:56;;;;;;;2.90;1.38;;;16.50;79.10;;;;;;10415116;28;20384;-56
2023/10/28 21:42:57;;;;;;;6.82;1.83;;;16.50;79.10;;;;;;10415386;28;20579;-56
2023/10/28 21:47:58;;;;;;;3.40;1.90;;;16.50;79.10;;;;;;10415007;28;20026;-56
2023/10/28 21:52:59;;;;;;;2.40;1.67;;;16.50;79.10;;;;;;10414957;28;20037;-56
2023/10/28 21:57:59;;;;;;;2.25;1.38;;;16.50;79.10;;;;;;10414305;28;20041;-56
2023/10/28 22:03:01;;;;;;;2.08;1.42;;;16.50;79.10;;;;;;10414640;28;20368;-56
2023/10/28 22:08:02;;;;;;;2.75;1.30;;;16.50;79.20;;;;;;10414169;28;20121;-56
2023/10/28 22:13:05;;;;;;;3.15;1.33;;;16.50;79.00;;;;;;10413312;28;20079;-56
2023/10/28 22:18:15;;;;;;;2.13;1.00;;;16.40;79.00;;;;;;10413638;28;20029;-56
2023/10/28 22:23:16;;;;;;;2.75;1.50;;;16.40;79.00;;;;;;10414195;28;20028;-56
2023/10/28 22:28:17;;;;;;;3.60;1.63;;;16.40;79.00;;;;;;10413439;28;20030;-56
2023/10/28 22:33:18;;;;;;;2.10;1.30;;;16.40;79.00;;;;;;10425673;28;20047;-57
2023/10/28 22:38:19;;;;;;;1.92;1.17;;;16.40;79.00;;;;;;10412939;28;20564;-56
2023/10/28 22:43:19;;;;;;;4.18;1.33;;;16.40;79.00;;;;;;10413176;28;20029;-56
2023/10/28 22:48:20;;;;;;;3.00;1.20;;;16.40;79.00;;;;;;10412749;28;20029;-56
2023/10/28 22:53:21;;;;;;;6.28;1.73;;;16.40;79.00;;;;;;10412946;28;20035;-54
2023/10/28 22:58:21;;;;;;;2.10;1.05;;;16.40;79.00;;;;;;10411942;28;20021;-56
2023/10/28 23:03:22;;;;;;;1.73;1.17;;;16.40;79.00;;;;;;10412326;28;20832;-56
2023/10/28 23:08:23;;;;;;;3.13;1.20;;;16.40;79.00;;;;;;10411854;28;20048;-56
2023/10/28 23:13:23;;;;;;;4.22;1.30;;;16.40;79.00;;;;;;10412038;28;20384;-56
2023/10/28 23:18:24;;;;;;;2.55;1.10;;;16.40;79.00;;;;;;10411312;28;20084;-55
2023/10/28 23:23:25;;;;;;;1.77;1.00;;;16.40;79.00;;;;;;10410569;28;20025;-56
2023/10/28 23:28:26;;;;;;;2.38;1.13;;;16.40;79.00;;;;;;10412423;28;20035;-56
2023/10/28 23:33:26;;;;;;;2.90;1.20;;;16.40;79.00;;;;;;10419908;28;20050;-56
2023/10/28 23:38:27;;;;;;;1.23;0.93;;;16.40;79.00;;;;;;10410624;28;20033;-56
2023/10/28 23:43:28;;;;;;;1.40;0.70;;;16.40;79.00;;;;;;10410941;28;20037;-56
2023/10/28 23:48:28;;;;;;;1.98;1.20;;;16.30;78.90;;;;;;10410333;28;20025;-56
2023/10/28 23:53:29;;;;;;;1.55;1.00;;;16.40;78.90;;;;;;10410875;28;20053;-56
2023/10/28 23:58:30;;;;;;;2.40;1.33;;;16.30;78.90;;;;;;10409985;28;20026;-56
